Time;durP1;ratioP1;P1;durP2;ratioP2;P2;SDS_P1;SDS_P2;PMS_P1;PMS_P2;Temp;Humidity;BMP_temperature;BMP_pressure;BME280_temperature;BME280_humidity;BME280_pressure;Samples;Min_cycle;Max_cycle;Signal;HPM_P1;HPM_P2
2023/05/13 00:00:36;;;;;;;;;;;;;;;;;;5080640;28;19931;-67
2023/05/13 00:03:03;;;;;;;;;;;;;;;;;;5082013;28;19924;-68
2023/05/13 00:05:30;;;;;;;;;;;;;;;;;;5072712;28;19932;-68
2023/05/13 00:08:00;;;;;;;;;;;;;;;;;;5075043;28;19964;-68
2023/05/13 00:10:27;;;;;;;;;;;;;;;;;;5072735;28;19924;-67
2023/05/13 00:12:56;;;;;;;;;;;;;;;;;;5071556;28;20439;-67
2023/05/13 00:15:23;;;;;;;;;;;;;;;;;;5069877;28;20332;-68
2023/05/13 00:17:50;;;;;;;;;;;;;;;;;;5086655;28;19968;-67
2023/05/13 00:20:17;;;;;;;;;;;;;;;;;;5080679;28;19924;-67
2023/05/13 00:22:44;;;;;;;;;;;;;;;;;;5088500;28;19986;-67
2023/05/13 00:25:11;;;;;;;;;;;;;;;;;;5069879;28;20383;-67
2023/05/13 00:27:38;;;;;;;;;;;;;;;;;;5075845;28;20033;-67
2023/05/13 00:30:05;;;;;;;;;;;;;;;;;;5078621;28;19978;-67
2023/05/13 00:32:32;;;;;;;;;;;;;;;;;;5071632;28;20040;-67
2023/05/13 00:34:59;;;;;;;;;;;;;;;;;;5072340;28;19924;-67
2023/05/13 00:37:26;;;;;;;;;;;;;;;;;;5074668;28;20370;-67
2023/05/13 00:39:53;;;;;;;;;;;;;;;;;;5070771;28;19985;-67
2023/05/13 00:42:20;;;;;;;;;;;;;;;;;;5071457;28;19978;-67
2023/05/13 00:44:47;;;;;;;;;;;;;;;;;;5079628;28;19924;-67
2023/05/13 00:47:14;;;;;;;;;;;;;;;;;;5074656;28;19924;-67
2023/05/13 00:49:41;;;;;;;;;;;;;;;;;;5070637;28;19924;-67
2023/05/13 00:52:08;;;;;;;;;;;;;;;;;;5088050;28;20436;-67
2023/05/13 00:54:35;;;;;;;;;;;;;;;;;;5075802;28;19924;-67
2023/05/13 00:57:02;;;;;;;;;;;;;;;;;;5073592;28;19932;-67
2023/05/13 00:59:29;;;;;;;;;;;;;;;;;;5076337;28;19931;-67
2023/05/13 01:01:56;;;;;;;;;;;;;;;;;;5076046;28;19925;-68
2023/05/13 01:04:23;;;;;;;;;;;;;;;;;;5081810;28;20287;-67
2023/05/13 01:06:50;;;;;;;;;;;;;;;;;;5080990;28;19992;-68
2023/05/13 01:09:17;;;;;;;;;;;;;;;;;;5080353;28;19967;-68
2023/05/13 01:11:44;;;;;;;;;;;;;;;;;;5070871;28;19924;-68
2023/05/13 01:14:11;;;;;;;;;;;;;;;;;;5070746;28;19924;-68
2023/05/13 01:16:38;;;;;;;;;;;;;;;;;;5061352;28;19924;-69
2023/05/13 01:19:05;;;;;;;;;;;;;;;;;;5059729;28;19986;-68
2023/05/13 01:21:32;;;;;;;;;;;;;;;;;;5071038;28;19924;-69
2023/05/13 01:24:00;;;;;;;;;;;;;;;;;;5062183;28;19928;-68
2023/05/13 01:26:27;;;;;;;;;;;;;;;;;;5072543;28;19925;-68
2023/05/13 01:28:54;;;;;;;;;;;;;;;;;;5069830;28;19932;-68
2023/05/13 01:31:21;;;;;;;;;;;;;;;;;;5071541;28;20379;-68
2023/05/13 01:33:48;;;;;;;;;;;;;;;;;;5072601;28;19925;-68
2023/05/13 01:36:15;;;;;;;;;;;;;;;;;;5071683;28;19971;-67
2023/05/13 01:38:42;;;;;;;;;;;;;;;;;;5070124;28;19928;-68
2023/05/13 01:41:09;;;;;;;;;;;;;;;;;;5072308;28;19931;-67
2023/05/13 01:43:36;;;;;;;;;;;;;;;;;;5071905;28;19978;-68
2023/05/13 01:46:03;;;;;;;;;;;;;;;;;;5072093;28;20280;-68
2023/05/13 01:48:30;;;;;;;;;;;;;;;;;;5069406;28;19978;-68
2023/05/13 01:50:57;;;;;;;;;;;;;;;;;;5070926;28;19978;-67
2023/05/13 01:53:24;;;;;;;;;;;;;;;;;;5081534;28;19977;-67
2023/05/13 01:55:51;;;;;;;;;;;;;;;;;;5077169;28;20478;-67
2023/05/13 01:58:18;;;;;;;;;;;;;;;;;;5073575;28;19933;-66
2023/05/13 02:00:45;;;;;;;;;;;;;;;;;;5074398;28;19924;-66
2023/05/13 02:03:12;;;;;;;;;;;;;;;;;;5078586;28;19925;-66
2023/05/13 02:05:39;;;;;;;;;;;;;;;;;;5073123;28;19978;-66
2023/05/13 02:08:06;;;;;;;;;;;;;;;;;;5073794;28;19924;-66
2023/05/13 02:10:33;;;;;;;;;;;;;;;;;;5071330;28;20019;-66
2023/05/13 02:13:00;;;;;;;;;;;;;;;;;;5085481;28;19967;-66
2023/05/13 02:15:27;;;;;;;;;;;;;;;;;;5074267;28;19924;-66
2023/05/13 02:17:54;;;;;;;;;;;;;;;;;;5064037;28;19978;-66
2023/05/13 02:20:21;;;;;;;;;;;;;;;;;;5088027;28;20282;-66
2023/05/13 02:22:48;;;;;;;;;;;;;;;;;;5081233;28;19978;-66
2023/05/13 02:25:15;;;;;;;;;;;;;;;;;;5079031;28;19925;-67
2023/05/13 02:27:42;;;;;;;;;;;;;;;;;;5085924;28;20379;-67
2023/05/13 02:30:09;;;;;;;;;;;;;;;;;;5082015;28;19970;-67
2023/05/13 02:32:36;;;;;;;;;;;;;;;;;;5078697;28;19924;-67
2023/05/13 02:35:03;;;;;;;;;;;;;;;;;;5083584;28;19974;-67
2023/05/13 02:37:30;;;;;;;;;;;;;;;;;;5078007;28;19971;-67
2023/05/13 02:39:57;;;;;;;;;;;;;;;;;;5078712;28;20363;-67
2023/05/13 02:42:24;;;;;;;;;;;;;;;;;;5089799;28;19977;-67
2023/05/13 02:44:51;;;;;;;;;;;;;;;;;;5076426;28;19982;-66
2023/05/13 02:47:18;;;;;;;;;;;;;;;;;;5073817;28;19930;-67
2023/05/13 02:49:45;;;;;;;;;;;;;;;;;;5079711;28;20285;-67
2023/05/13 02:52:12;;;;;;;;;;;;;;;;;;5074728;28;19924;-67
2023/05/13 02:54:39;;;;;;;;;;;;;;;;;;5074292;28;19970;-67
2023/05/13 02:57:06;;;;;;;;;;;;;;;;;;5087187;28;19970;-67
2023/05/13 02:59:33;;;;;;;;;;;;;;;;;;5074565;28;19924;-66
2023/05/13 03:02:00;;;;;;;;;;;;;;;;;;5073127;28;19958;-66
2023/05/13 03:04:27;;;;;;;;;;;;;;;;;;5080111;28;20379;-67
2023/05/13 03:06:54;;;;;;;;;;;;;;;;;;5089076;28;19924;-66
2023/05/13 03:09:21;;;;;;;;;;;;;;;;;;5083352;28;19976;-67
2023/05/13 03:11:48;;;;;;;;;;;;;;;;;;5074471;28;19933;-67
2023/05/13 03:14:15;;;;;;;;;;;;;;;;;;5076099;28;19997;-68
2023/05/13 03:16:43;;;;;;;;;;;;;;;;;;5084049;28;19924;-67
2023/05/13 03:19:10;;;;;;;;;;;;;;;;;;5077094;28;19925;-67
2023/05/13 03:21:37;;;;;;;;;;;;;;;;;;5092655;28;19978;-68
2023/05/13 03:24:04;;;;;;;;;;;;;;;;;;5073512;28;19975;-68
2023/05/13 03:26:31;;;;;;;;;;;;;;;;;;5078676;28;19928;-67
2023/05/13 03:29:00;;;;;;;;;;;;;;;;;;5079619;28;19925;-67
2023/05/13 03:31:27;;;;;;;;;;;;;;;;;;5094413;28;19924;-67
2023/05/13 03:33:54;;;;;;;;;;;;;;;;;;5075008;28;19971;-68
2023/05/13 03:36:21;;;;;;;;;;;;;;;;;;5060832;28;19925;-68
2023/05/13 03:38:48;;;;;;;;;;;;;;;;;;5068055;28;19936;-68
2023/05/13 03:41:16;;;;;;;;;;;;;;;;;;5074140;28;19924;-67
2023/05/13 03:43:43;;;;;;;;;;;;;;;;;;5074036;28;19925;-67
2023/05/13 03:46:10;;;;;;;;;;;;;;;;;;5073316;28;20371;-68
2023/05/13 03:48:37;;;;;;;;;;;;;;;;;;5073835;28;19924;-68
2023/05/13 03:51:04;;;;;;;;;;;;;;;;;;5073486;28;20283;-69
2023/05/13 03:53:31;;;;;;;;;;;;;;;;;;5073399;28;19924;-68
2023/05/13 03:55:58;;;;;;;;;;;;;;;;;;5073533;28;19970;-68
2023/05/13 03:58:25;;;;;;;;;;;;;;;;;;5073374;28;19970;-68
2023/05/13 04:00:52;;;;;;;;;;;;;;;;;;5071800;28;19976;-67
2023/05/13 04:03:19;;;;;;;;;;;;;;;;;;5068150;28;19968;-68
2023/05/13 04:05:46;;;;;;;;;;;;;;;;;;5072674;28;19944;-68
2023/05/13 04:08:13;;;;;;;;;;;;;;;;;;5079757;28;20035;-68
2023/05/13 04:10:40;;;;;;;;;;;;;;;;;;5082177;28;20243;-67
2023/05/13 04:13:07;;;;;;;;;;;;;;;;;;5081913;28;19924;-68
2023/05/13 04:15:34;;;;;;;;;;;;;;;;;;5073295;28;19924;-68
2023/05/13 04:18:01;;;;;;;;;;;;;;;;;;5070211;28;20025;-68
2023/05/13 04:20:28;;;;;;;;;;;;;;;;;;5079119;28;19966;-67
2023/05/13 04:22:55;;;;;;;;;;;;;;;;;;5073816;28;19925;-68
2023/05/13 04:25:22;;;;;;;;;;;;;;;;;;5080771;28;20417;-68
2023/05/13 04:27:49;;;;;;;;;;;;;;;;;;5072763;28;19939;-68
2023/05/13 04:30:16;;;;;;;;;;;;;;;;;;5072324;28;19955;-68
2023/05/13 04:32:43;;;;;;;;;;;;;;;;;;5077454;28;19954;-68
2023/05/13 04:35:10;;;;;;;;;;;;;;;;;;5086047;28;19954;-68
2023/05/13 04:37:37;;;;;;;;;;;;;;;;;;5075695;28;20056;-68
2023/05/13 04:40:04;;;;;;;;;;;;;;;;;;5077187;28;19933;-68
2023/05/13 04:42:31;;;;;;;;;;;;;;;;;;5092326;28;19954;-67
2023/05/13 04:44:58;;;;;;;;;;;;;;;;;;5074203;28;19925;-67
2023/05/13 04:47:25;;;;;;;;;;;;;;;;;;5074814;28;20394;-67
2023/05/13 04:49:52;;;;;;;;;;;;;;;;;;5071872;28;19924;-67
2023/05/13 04:52:19;;;;;;;;;;;;;;;;;;5073016;28;20379;-67
2023/05/13 04:54:46;;;;;;;;;;;;;;;;;;5072153;28;19924;-67
2023/05/13 04:57:13;;;;;;;;;;;;;;;;;;5086228;28;19925;-67
2023/05/13 04:59:40;;;;;;;;;;;;;;;;;;5071394;28;20021;-68
2023/05/13 05:02:07;;;;;;;;;;;;;;;;;;5072177;28;19925;-68
2023/05/13 05:04:34;;;;;;;;;;;;;;;;;;5081524;28;20391;-68
2023/05/13 05:07:01;;;;;;;;;;;;;;;;;;5075996;28;19924;-68
2023/05/13 05:09:28;;;;;;;;;;;;;;;;;;5072830;28;19970;-68
2023/05/13 05:11:55;;;;;;;;;;;;;;;;;;5068082;28;19932;-68
2023/05/13 05:14:22;;;;;;;;;;;;;;;;;;5083699;28;19975;-68
2023/05/13 05:16:50;;;;;;;;;;;;;;;;;;5072998;28;19982;-67
2023/05/13 05:19:22;;;;;;;;;;;;;;;;;;5068857;28;19924;-67
2023/05/13 05:21:49;;;;;;;;;;;;;;;;;;5069746;28;20043;-67
2023/05/13 05:24:16;;;;;;;;;;;;;;;;;;5063421;28;20010;-67
2023/05/13 05:26:43;;;;;;;;;;;;;;;;;;5070236;28;20410;-67
2023/05/13 05:29:10;;;;;;;;;;;;;;;;;;5071782;28;19924;-68
2023/05/13 05:31:37;;;;;;;;;;;;;;;;;;5070487;28;19982;-67
2023/05/13 05:34:04;;;;;;;;;;;;;;;;;;5071788;28;19925;-67
2023/05/13 05:36:31;;;;;;;;;;;;;;;;;;5071568;28;19925;-67
2023/05/13 05:38:58;;;;;;;;;;;;;;;;;;5071011;28;20443;-67
2023/05/13 05:41:25;;;;;;;;;;;;;;;;;;5071724;28;19966;-67
2023/05/13 05:43:52;;;;;;;;;;;;;;;;;;5074971;28;19982;-67
2023/05/13 05:46:21;;;;;;;;;;;;;;;;;;5071054;28;20284;-68
2023/05/13 05:48:48;;;;;;;;;;;;;;;;;;5070523;28;19928;-67
2023/05/13 05:51:15;;;;;;;;;;;;;;;;;;5081711;28;19928;-67
2023/05/13 05:53:42;;;;;;;;;;;;;;;;;;5068944;28;19975;-67
2023/05/13 05:56:09;;;;;;;;;;;;;;;;;;5071419;28;19924;-67
2023/05/13 05:58:36;;;;;;;;;;;;;;;;;;5077324;28;20653;-68
2023/05/13 06:01:04;;;;;;;;;;;;;;;;;;5072123;28;19978;-67
2023/05/13 06:03:31;;;;;;;;;;;;;;;;;;5071988;28;20315;-67
2023/05/13 06:05:58;;;;;;;;;;;;;;;;;;5088929;28;19924;-67
2023/05/13 06:08:28;;;;;;;;;;;;;;;;;;5072160;28;20357;-68
2023/05/13 06:10:55;;;;;;;;;;;;;;;;;;5069490;28;19925;-67
2023/05/13 06:13:22;;;;;;;;;;;;;;;;;;5070596;28;19928;-67
2023/05/13 06:15:50;;;;;;;;;;;;;;;;;;5072934;28;19978;-67
2023/05/13 06:18:17;;;;;;;;;;;;;;;;;;5078102;28;20066;-68
2023/05/13 06:20:44;;;;;;;;;;;;;;;;;;5069708;28;19927;-67
2023/05/13 06:23:11;;;;;;;;;;;;;;;;;;5071208;28;19929;-68
2023/05/13 06:25:38;;;;;;;;;;;;;;;;;;5071443;28;19924;-68
2023/05/13 06:28:05;;;;;;;;;;;;;;;;;;5071766;28;19925;-67
2023/05/13 06:30:32;;;;;;;;;;;;;;;;;;5069591;28;19994;-66
2023/05/13 06:32:59;;;;;;;;;;;;;;;;;;5074046;28;19924;-68
2023/05/13 06:35:26;;;;;;;;;;;;;;;;;;5079818;28;20420;-67
2023/05/13 06:37:53;;;;;;;;;;;;;;;;;;5076716;28;19978;-68
2023/05/13 06:40:20;;;;;;;;;;;;;;;;;;5066777;28;19968;-68
2023/05/13 06:42:47;;;;;;;;;;;;;;;;;;5072368;28;19928;-67
2023/05/13 06:45:14;;;;;;;;;;;;;;;;;;5069047;28;20319;-68
2023/05/13 06:47:41;;;;;;;;;;;;;;;;;;5085443;28;19924;-65
2023/05/13 06:50:08;;;;;;;;;;;;;;;;;;5073452;28;20001;-68
2023/05/13 06:52:35;;;;;;;;;;;;;;;;;;5063097;28;19925;-68
2023/05/13 06:55:02;;;;;;;;;;;;;;;;;;5079106;28;19924;-68
2023/05/13 06:57:29;;;;;;;;;;;;;;;;;;5074450;28;20005;-71
2023/05/13 06:59:56;;;;;;;;;;;;;;;;;;5073897;28;19936;-70
2023/05/13 07:02:23;;;;;;;;;;;;;;;;;;5078305;28;19968;-72
2023/05/13 07:04:50;;;;;;;;;;;;;;;;;;5072012;28;19924;-70
2023/05/13 07:07:17;;;;;;;;;;;;;;;;;;5073874;28;19968;-71
2023/05/13 07:09:44;;;;;;;;;;;;;;;;;;5076477;23;19962;31
2023/05/13 07:12:11;;;;;;;;;;;;;;;;;;5053309;28;19939;-69
2023/05/13 07:14:38;;;;;;;;;;;;;;;;;;5046598;28;20350;-70
2023/05/13 07:17:06;;;;;;;;;;;;;;;;;;5053981;28;19932;-70
2023/05/13 07:19:34;;;;;;;;;;;;;;;;;;5052749;28;19972;-71
2023/05/13 07:22:01;;;;;;;;;;;;;;;;;;5051992;28;19924;-70
2023/05/13 07:24:28;;;;;;;;;;;;;;;;;;5059679;28;19925;-69
2023/05/13 07:26:55;;;;;;;;;;;;;;;;;;5049014;28;20391;-69
2023/05/13 07:29:22;;;;;;;;;;;;;;;;;;5045637;28;19925;-69
2023/05/13 07:31:49;;;;;;;;;;;;;;;;;;5050602;28;19991;-69
2023/05/13 07:34:16;;;;;;;;;;;;;;;;;;5049111;28;19928;-69
2023/05/13 07:36:43;;;;;;;;;;;;;;;;;;5037583;28;19960;-69
2023/05/13 07:39:10;;;;;;;;;;;;;;;;;;5049820;28;20024;-69
2023/05/13 07:41:37;;;;;;;;;;;;;;;;;;5051124;28;19976;-70
2023/05/13 07:44:04;;;;;;;;;;;;;;;;;;5045447;28;19986;-70
2023/05/13 07:46:32;;;;;;;;;;;;;;;;;;5040518;28;19925;-70
2023/05/13 07:48:59;;;;;;;;;;;;;;;;;;5052460;28;19925;-70
2023/05/13 07:51:26;;;;;;;;;;;;;;;;;;5051149;28;20679;-70
2023/05/13 07:53:53;;;;;;;;;;;;;;;;;;5042373;28;19933;-67
2023/05/13 07:56:20;;;;;;;;;;;;;;;;;;5052492;28;19932;-67
2023/05/13 07:58:48;;;;;;;;;;;;;;;;;;5052623;28;20375;-66
2023/05/13 08:01:15;;;;;;;;;;;;;;;;;;5044008;28;19972;-68
2023/05/13 08:03:42;;;;;;;;;;;;;;;;;;5046036;28;19978;-68
2023/05/13 08:06:09;;;;;;;;;;;;;;;;;;5051869;28;19964;-68
2023/05/13 08:08:36;;;;;;;;;;;;;;;;;;5052544;28;20379;-68
2023/05/13 08:11:03;;;;;;;;;;;;;;;;;;5049328;28;19925;-68
2023/05/13 08:13:30;;;;;;;;;;;;;;;;;;5044263;28;19983;-68
2023/05/13 08:15:57;;;;;;;;;;;;;;;;;;5040380;28;20230;-68
2023/05/13 08:18:24;;;;;;;;;;;;;;;;;;5032636;28;20311;-68
2023/05/13 08:20:51;;;;;;;;;;;;;;;;;;5040298;28;20034;-68
2023/05/13 08:23:18;;;;;;;;;;;;;;;;;;5039945;28;19966;-68
2023/05/13 08:25:45;;;;;;;;;;;;;;;;;;5053044;28;19929;-68
2023/05/13 08:28:12;;;;;;;;;;;;;;;;;;5046443;28;20316;-67
2023/05/13 08:30:43;;;;;;;;;;;;;;;;;;5046154;28;20370;-67
2023/05/13 08:33:10;;;;;;;;;;;;;;;;;;5057063;28;19976;-68
2023/05/13 08:35:37;;;;;;;;;;;;;;;;;;5053096;28;20257;-69
2023/05/13 08:38:04;;;;;;;;;;;;;;;;;;5044730;28;19925;-68
2023/05/13 08:40:31;;;;;;;;;;;;;;;;;;5042279;28;19929;-69
2023/05/13 08:42:58;;;;;;;;;;;;;;;;;;5048552;28;19925;-69
2023/05/13 08:45:25;;;;;;;;;;;;;;;;;;5045821;28;20335;-66
2023/05/13 08:47:52;;;;;;;;;;;;;;;;;;5048378;28;19932;-68
2023/05/13 08:50:19;;;;;;;;;;;;;;;;;;5044763;28;20397;-67
2023/05/13 08:52:46;;;;;;;;;;;;;;;;;;5045025;28;20030;-67
2023/05/13 08:55:13;;;;;;;;;;;;;;;;;;5045208;28;19925;-67
2023/05/13 08:57:40;;;;;;;;;;;;;;;;;;5038237;28;19929;-67
2023/05/13 09:00:07;;;;;;;;;;;;;;;;;;5040068;28;19928;-68
2023/05/13 09:02:34;;;;;;;;;;;;;;;;;;5038875;28;20422;-67
2023/05/13 09:05:01;;;;;;;;;;;;;;;;;;5049935;28;19978;-68
2023/05/13 09:07:28;;;;;;;;;;;;;;;;;;5050493;28;19924;-68
2023/05/13 09:09:55;;;;;;;;;;;;;;;;;;5043667;28;19987;-68
2023/05/13 09:12:22;;;;;;;;;;;;;;;;;;5044411;28;20296;-68
2023/05/13 09:14:49;;;;;;;;;;;;;;;;;;5035068;28;19971;-68
2023/05/13 09:17:16;;;;;;;;;;;;;;;;;;5051631;28;19932;-68
2023/05/13 09:19:43;;;;;;;;;;;;;;;;;;5050451;28;19978;-68
2023/05/13 09:22:10;;;;;;;;;;;;;;;;;;5046520;28;19960;-68
2023/05/13 09:24:37;;;;;;;;;;;;;;;;;;5066057;28;19971;-67
2023/05/13 09:27:04;;;;;;;;;;;;;;;;;;5051978;28;19964;-68
2023/05/13 09:29:32;;;;;;;;;;;;;;;;;;5051133;28;20292;-69
2023/05/13 09:31:59;;;;;;;;;;;;;;;;;;5045259;28;20039;-67
2023/05/13 09:34:26;;;;;;;;;;;;;;;;;;5041957;28;20380;-68
2023/05/13 09:36:53;;;;;;;;;;;;;;;;;;5063930;28;19925;-68
2023/05/13 09:39:20;;;;;;;;;;;;;;;;;;5043971;28;19924;-69
2023/05/13 09:41:47;;;;;;;;;;;;;;;;;;5048680;28;19929;-68
2023/05/13 09:44:14;;;;;;;;;;;;;;;;;;5046560;28;19929;-68
2023/05/13 09:46:41;;;;;;;;;;;;;;;;;;5051832;28;19987;-69
2023/05/13 09:49:08;;;;;;;;;;;;;;;;;;5048407;28;19983;-68
2023/05/13 09:51:35;;;;;;;;;;;;;;;;;;5049572;28;20382;-68
2023/05/13 09:54:02;;;;;;;;;;;;;;;;;;5048631;28;19925;-68
2023/05/13 09:56:30;;;;;;;;;;;;;;;;;;5047168;28;19983;-68
2023/05/13 09:58:58;;;;;;;;;;;;;;;;;;5056379;28;19925;-69
2023/05/13 10:01:25;;;;;;;;;;;;;;;;;;5046488;28;19978;-65
2023/05/13 10:03:52;;;;;;;;;;;;;;;;;;5049245;28;20453;-66
2023/05/13 10:06:21;;;;;;;;;;;;;;;;;;5050693;28;19925;-67
2023/05/13 10:08:48;;;;;;;;;;;;;;;;;;5040618;28;20026;-68
2023/05/13 10:11:15;;;;;;;;;;;;;;;;;;5038020;28;19994;-67
2023/05/13 10:13:42;;;;;;;;;;;;;;;;;;5038466;28;20019;-67
2023/05/13 10:16:09;;;;;;;;;;;;;;;;;;5057497;28;20014;-67
2023/05/13 10:18:36;;;;;;;;;;;;;;;;;;5061824;28;20058;-67
2023/05/13 10:21:03;;;;;;;;;;;;;;;;;;5058260;28;19951;-67
2023/05/13 10:23:31;;;;;;;;;;;;;;;;;;5049709;28;19941;-67
2023/05/13 10:25:58;;;;;;;;;;;;;;;;;;5052414;28;19925;-67
2023/05/13 10:28:26;;;;;;;;;;;;;;;;;;5053252;28;19939;-67
2023/05/13 10:30:53;;;;;;;;;;;;;;;;;;5050906;28;19932;-67
2023/05/13 10:33:21;;;;;;;;;;;;;;;;;;5059269;28;19978;-67
2023/05/13 10:35:47;;;;;;;;;;;;;;;;;;5051530;28;19936;-67
2023/05/13 10:38:14;;;;;;;;;;;;;;;;;;5056922;28;19972;-67
2023/05/13 10:40:41;;;;;;;;;;;;;;;;;;5051979;28;20352;-67
2023/05/13 10:43:08;;;;;;;;;;;;;;;;;;5054482;28;19991;-66
2023/05/13 10:45:35;;;;;;;;;;;;;;;;;;5055048;28;19924;-68
2023/05/13 10:48:02;;;;;;;;;;;;;;;;;;5057530;28;19964;-68
2023/05/13 10:50:30;;;;;;;;;;;;;;;;;;5060163;28;20006;-68
2023/05/13 10:52:57;;;;;;;;;;;;;;;;;;5047525;28;19925;-68
2023/05/13 10:55:24;;;;;;;;;;;;;;;;;;5049678;28;19990;-68
2023/05/13 10:57:51;;;;;;;;;;;;;;;;;;5050630;28;20285;-68
2023/05/13 11:00:19;;;;;;;;;;;;;;;;;;5053705;28;19957;-68
2023/05/13 11:02:46;;;;;;;;;;;;;;;;;;5059553;28;19979;-68
2023/05/13 11:05:13;;;;;;;;;;;;;;;;;;5053096;28;19975;-68
2023/05/13 11:07:40;;;;;;;;;;;;;;;;;;5052023;28;19968;-68
2023/05/13 11:10:07;;;;;;;;;;;;;;;;;;5052871;28;20329;-68
2023/05/13 11:12:34;;;;;;;;;;;;;;;;;;5067692;28;19928;-68
2023/05/13 11:15:01;;;;;;;;;;;;;;;;;;5051278;28;19932;-68
2023/05/13 11:17:28;;;;;;;;;;;;;;;;;;5050327;28;19974;-68
2023/05/13 11:19:55;;;;;;;;;;;;;;;;;;5053109;28;19974;-68
2023/05/13 11:22:22;;;;;;;;;;;;;;;;;;5049834;28;20020;-68
2023/05/13 11:24:49;;;;;;;;;;;;;;;;;;5045966;28;20303;-68
2023/05/13 11:27:16;;;;;;;;;;;;;;;;;;5054111;28;19967;-68
2023/05/13 11:29:43;;;;;;;;;;;;;;;;;;5053932;28;20019;-68
2023/05/13 11:32:10;;;;;;;;;;;;;;;;;;5046748;28;20342;-68
2023/05/13 11:34:37;;;;;;;;;;;;;;;;;;5044975;28;19979;-68
2023/05/13 11:37:04;;;;;;;;;;;;;;;;;;5053797;28;20387;-68
2023/05/13 11:39:31;;;;;;;;;;;;;;;;;;5053807;28;19928;-68
2023/05/13 11:42:00;;;;;;;;;;;;;;;;;;5052802;28;19987;-68
2023/05/13 11:44:27;;;;;;;;;;;;;;;;;;5053937;28;19948;-68
2023/05/13 11:46:54;;;;;;;;;;;;;;;;;;5051473;28;19968;-68
2023/05/13 11:49:21;;;;;;;;;;;;;;;;;;5059379;28;20027;-67
2023/05/13 11:51:48;;;;;;;;;;;;;;;;;;5059352;28;19982;-68
2023/05/13 11:54:15;;;;;;;;;;;;;;;;;;5054781;28;19968;-68
2023/05/13 11:56:42;;;;;;;;;;;;;;;;;;5059683;28;20295;-68
2023/05/13 11:59:09;;;;;;;;;;;;;;;;;;5056512;28;19956;-68
2023/05/13 12:01:36;;;;;;;;;;;;;;;;;;5053189;28;19976;-68
2023/05/13 12:04:04;;;;;;;;;;;;;;;;;;5060211;28;19970;-68
2023/05/13 12:06:31;;;;;;;;;;;;;;;;;;5052532;28;19986;-68
2023/05/13 12:08:58;;;;;;;;;;;;;;;;;;5052225;28;20372;-68
2023/05/13 12:11:26;;;;;;;;;;;;;;;;;;5052658;28;19925;-67
2023/05/13 12:13:53;;;;;;;;;;;;;;;;;;5055726;28;20023;-67
2023/05/13 12:16:20;;;;;;;;;;;;;;;;;;5053273;28;19932;-68
2023/05/13 12:18:47;;;;;;;;;;;;;;;;;;5050267;28;19970;-68
2023/05/13 12:21:14;;;;;;;;;;;;;;;;;;5052389;28;19929;-67
2023/05/13 12:23:41;;;;;;;;;;;;;;;;;;5053875;28;19928;-68
2023/05/13 12:26:08;;;;;;;;;;;;;;;;;;5049848;28;19924;-68
2023/05/13 12:28:36;;;;;;;;;;;;;;;;;;5060114;28;19932;-68
2023/05/13 12:31:03;;;;;;;;;;;;;;;;;;5060113;28;19929;-67
2023/05/13 12:33:30;;;;;;;;;;;;;;;;;;5052884;28;19978;-68
2023/05/13 12:35:57;;;;;;;;;;;;;;;;;;5052539;28;19925;-67
2023/05/13 12:38:24;;;;;;;;;;;;;;;;;;5055851;28;19925;-67
2023/05/13 12:40:51;;;;;;;;;;;;;;;;;;5053194;28;19978;-67
2023/05/13 12:43:19;;;;;;;;;;;;;;;;;;5052249;28;20144;-67
2023/05/13 12:45:46;;;;;;;;;;;;;;;;;;5049917;28;19925;-68
2023/05/13 12:48:13;;;;;;;;;;;;;;;;;;5044487;28;19931;-68
2023/05/13 12:50:40;;;;;;;;;;;;;;;;;;5041177;28;20375;-68
2023/05/13 12:53:07;;;;;;;;;;;;;;;;;;5052410;28;19986;-69
2023/05/13 12:55:38;;;;;;;;;;;;;;;;;;5046603;28;19925;-68
2023/05/13 12:58:06;;;;;;;;;;;;;;;;;;5047926;28;20479;-68
2023/05/13 13:00:33;;;;;;;;;;;;;;;;;;5051551;28;19933;-68
2023/05/13 13:03:02;;;;;;;;;;;;;;;;;;5047906;28;20067;-69
2023/05/13 13:05:29;;;;;;;;;;;;;;;;;;5044685;28;20023;-69
2023/05/13 13:07:56;;;;;;;;;;;;;;;;;;5044141;28;19924;-69
2023/05/13 13:10:23;;;;;;;;;;;;;;;;;;5050882;28;20979;-69
2023/05/13 13:12:51;;;;;;;;;;;;;;;;;;5050564;28;19943;-68
2023/05/13 13:15:18;;;;;;;;;;;;;;;;;;5048777;28;19925;-68
2023/05/13 13:17:45;;;;;;;;;;;;;;;;;;5048920;28;19994;-68
2023/05/13 13:20:12;;;;;;;;;;;;;;;;;;5051181;28;20026;-68
2023/05/13 13:22:39;;;;;;;;;;;;;;;;;;5052128;28;19929;-69
2023/05/13 13:25:06;;;;;;;;;;;;;;;;;;5049174;28;20014;-69
2023/05/13 13:27:33;;;;;;;;;;;;;;;;;;5045553;28;20330;-68
2023/05/13 13:30:00;;;;;;;;;;;;;;;;;;5050750;28;19931;-69
2023/05/13 13:32:27;;;;;;;;;;;;;;;;;;5035728;28;19926;-68
2023/05/13 13:34:56;;;;;;;;;;;;;;;;;;5040319;28;20355;-68
2023/05/13 13:37:23;;;;;;;;;;;;;;;;;;5048547;28;19958;-69
2023/05/13 13:39:50;;;;;;;;;;;;;;;;;;5050500;28;19925;-68
2023/05/13 13:42:17;;;;;;;;;;;;;;;;;;5039422;28;20379;-66
2023/05/13 13:44:44;;;;;;;;;;;;;;;;;;5050719;28;19968;-67
2023/05/13 13:47:11;;;;;;;;;;;;;;;;;;5049515;28;19967;-68
2023/05/13 13:49:38;;;;;;;;;;;;;;;;;;5043983;28;20317;-70
2023/05/13 13:52:05;;;;;;;;;;;;;;;;;;5039953;28;19932;-70
2023/05/13 13:54:32;;;;;;;;;;;;;;;;;;5049187;28;20120;-70
2023/05/13 13:56:59;;;;;;;;;;;;;;;;;;5049869;28;19972;-69
2023/05/13 13:59:26;;;;;;;;;;;;;;;;;;5049166;28;19925;-71
2023/05/13 14:01:53;;;;;;;;;;;;;;;;;;5042617;28;19925;-70
2023/05/13 14:04:22;;;;;;;;;;;;;;;;;;5049112;28;20367;-70
2023/05/13 14:06:49;;;;;;;;;;;;;;;;;;5048935;28;19932;-70
2023/05/13 14:09:16;;;;;;;;;;;;;;;;;;5038136;28;19932;-70
2023/05/13 14:11:43;;;;;;;;;;;;;;;;;;4986134;28;1853472;-71
2023/05/13 14:14:10;;;;;;;;;;;;;;;;;;5041139;28;19928;-70
2023/05/13 14:16:37;;;;;;;;;;;;;;;;;;5043662;28;19925;-70
2023/05/13 14:19:04;;;;;;;;;;;;;;;;;;5055662;28;20008;-70
2023/05/13 14:21:31;;;;;;;;;;;;;;;;;;5053762;28;19925;-70
2023/05/13 14:23:58;;;;;;;;;;;;;;;;;;5050515;28;19924;-69
2023/05/13 14:26:25;;;;;;;;;;;;;;;;;;5052234;28;19925;-70
2023/05/13 14:28:52;;;;;;;;;;;;;;;;;;5056702;28;19929;-70
2023/05/13 14:31:19;;;;;;;;;;;;;;;;;;5066870;28;19940;-71
2023/05/13 14:33:46;;;;;;;;;;;;;;;;;;5045051;28;19959;-69
2023/05/13 14:36:15;;;;;;;;;;;;;;;;;;5050063;28;20275;-69
2023/05/13 14:38:42;;;;;;;;;;;;;;;;;;5051598;28;19930;-69
2023/05/13 14:41:09;;;;;;;;;;;;;;;;;;5060816;28;19964;-69
2023/05/13 14:43:36;;;;;;;;;;;;;;;;;;5052179;28;19944;-68
2023/05/13 14:46:05;;;;;;;;;;;;;;;;;;5051782;28;20407;-69
2023/05/13 14:48:32;;;;;;;;;;;;;;;;;;5035518;28;19925;-69
2023/05/13 14:50:59;;;;;;;;;;;;;;;;;;5035259;28;19983;-68
2023/05/13 14:53:26;;;;;;;;;;;;;;;;;;5052678;28;19983;-68
2023/05/13 14:55:53;;;;;;;;;;;;;;;;;;5047161;28;20380;-70
2023/05/13 14:58:20;;;;;;;;;;;;;;;;;;5039612;28;19925;-69
2023/05/13 15:00:47;;;;;;;;;;;;;;;;;;5038425;28;19932;-68
2023/05/13 15:03:14;;;;;;;;;;;;;;;;;;5038532;28;20328;-69
2023/05/13 15:05:41;;;;;;;;;;;;;;;;;;5050287;28;19929;-69
2023/05/13 15:08:08;;;;;;;;;;;;;;;;;;5048627;28;19925;-69
2023/05/13 15:10:35;;;;;;;;;;;;;;;;;;5050237;28;19958;-68
2023/05/13 15:13:02;;;;;;;;;;;;;;;;;;5044831;28;20388;-69
2023/05/13 15:15:29;;;;;;;;;;;;;;;;;;5042139;28;19967;-69
2023/05/13 15:17:56;;;;;;;;;;;;;;;;;;5044392;28;19924;-69
2023/05/13 15:20:23;;;;;;;;;;;;;;;;;;5049860;28;19925;-69
2023/05/13 15:22:50;;;;;;;;;;;;;;;;;;5046488;28;19925;-70
2023/05/13 15:25:17;;;;;;;;;;;;;;;;;;5041705;28;19961;-68
2023/05/13 15:27:44;;;;;;;;;;;;;;;;;;5052552;28;20462;-67
2023/05/13 15:30:11;;;;;;;;;;;;;;;;;;5042242;28;19968;-70
2023/05/13 15:32:38;;;;;;;;;;;;;;;;;;5037255;28;19925;-69
2023/05/13 15:35:05;;;;;;;;;;;;;;;;;;5047482;28;20340;-69
2023/05/13 15:37:32;;;;;;;;;;;;;;;;;;5051285;28;19925;-69
2023/05/13 15:39:59;;;;;;;;;;;;;;;;;;5047310;28;19924;-68
2023/05/13 15:42:26;;;;;;;;;;;;;;;;;;5050331;28;19925;-69
2023/05/13 15:44:53;;;;;;;;;;;;;;;;;;5047909;28;20035;-69
2023/05/13 15:47:20;;;;;;;;;;;;;;;;;;5050753;28;19979;-69
2023/05/13 15:49:48;;;;;;;;;;;;;;;;;;5040593;28;19926;-69
2023/05/13 15:52:15;;;;;;;;;;;;;;;;;;5048938;28;19928;-69
2023/05/13 15:54:42;;;;;;;;;;;;;;;;;;5044791;28;19931;-69
2023/05/13 15:57:09;;;;;;;;;;;;;;;;;;5047764;28;20014;-69
2023/05/13 15:59:36;;;;;;;;;;;;;;;;;;5045965;28;19932;-69
2023/05/13 16:02:03;;;;;;;;;;;;;;;;;;5047173;28;19982;-69
2023/05/13 16:04:30;;;;;;;;;;;;;;;;;;5044412;28;19925;-69
2023/05/13 16:06:57;;;;;;;;;;;;;;;;;;5046983;28;20494;-69
2023/05/13 16:09:24;;;;;;;;;;;;;;;;;;5040179;28;20273;-69
2023/05/13 16:11:52;;;;;;;;;;;;;;;;;;5043888;28;19925;-69
2023/05/13 16:14:19;;;;;;;;;;;;;;;;;;5045450;28;19939;-69
2023/05/13 16:16:46;;;;;;;;;;;;;;;;;;5044561;28;19925;-70
2023/05/13 16:19:13;;;;;;;;;;;;;;;;;;5044349;28;19933;-68
2023/05/13 16:21:41;;;;;;;;;;;;;;;;;;5042918;28;19925;-67
2023/05/13 16:24:08;;;;;;;;;;;;;;;;;;5041007;28;19925;-69
2023/05/13 16:26:35;;;;;;;;;;;;;;;;;;5045785;28;19929;-68
2023/05/13 16:29:02;;;;;;;;;;;;;;;;;;5050530;28;19971;-68
2023/05/13 16:31:29;;;;;;;;;;;;;;;;;;5051422;28;19925;-69
2023/05/13 16:33:56;;;;;;;;;;;;;;;;;;5046090;28;19925;-70
2023/05/13 16:36:23;;;;;;;;;;;;;;;;;;5046095;28;19978;-70
2023/05/13 16:38:50;;;;;;;;;;;;;;;;;;5050781;28;19939;-70
2023/05/13 16:41:17;;;;;;;;;;;;;;;;;;5041981;28;19933;-70
2023/05/13 16:43:44;;;;;;;;;;;;;;;;;;5040386;28;19924;-70